createdAt,value
2018-11-25T00:00:51.441Z,22.70
2018-11-25T00:01:51.434Z,22.70
2018-11-25T00:02:51.427Z,20.90
2018-11-25T00:03:51.410Z,21.30
2018-11-25T00:04:51.426Z,25.50
2018-11-25T00:05:51.385Z,27.90
2018-11-25T00:06:51.378Z,24.70
2018-11-25T00:07:51.426Z,27.10
2018-11-25T00:08:51.388Z,32.90
2018-11-25T00:09:51.340Z,26.20
2018-11-25T00:10:51.395Z,25.50
2018-11-25T00:11:51.318Z,29.60
2018-11-25T00:12:51.306Z,25.90
2018-11-25T00:13:51.307Z,25.10
2018-11-25T00:14:51.288Z,24.60
2018-11-25T00:15:51.363Z,27.10
2018-11-25T00:16:51.265Z,24.70
2018-11-25T00:17:51.260Z,26.10
2018-11-25T00:18:51.310Z,25.50
2018-11-25T00:19:51.236Z,25.00
2018-11-25T00:20:51.235Z,25.30
2018-11-25T00:21:51.252Z,24.20
2018-11-25T00:22:51.206Z,26.40
2018-11-25T00:23:51.197Z,22.20
2018-11-25T00:24:51.212Z,25.80
2018-11-25T00:25:51.168Z,26.40
2018-11-25T00:26:51.187Z,22.90
2018-11-25T00:27:51.161Z,26.80
2018-11-25T00:28:51.144Z,25.20
2018-11-25T00:29:51.143Z,24.10
2018-11-25T00:30:51.179Z,26.10
2018-11-25T00:31:51.134Z,25.80
2018-11-25T00:32:51.096Z,22.20
2018-11-25T00:33:51.094Z,21.40
2018-11-25T00:34:51.079Z,23.00
2018-11-25T00:35:51.069Z,21.90
2018-11-25T00:36:51.164Z,23.60
2018-11-25T00:37:51.057Z,27.10
2018-11-25T00:38:51.039Z,23.20
2018-11-25T00:39:51.037Z,25.00
2018-11-25T00:40:51.080Z,27.30
2018-11-25T00:41:51.026Z,24.00
2018-11-25T00:42:51.046Z,28.80
2018-11-25T00:43:50.979Z,21.90
2018-11-25T00:44:50.972Z,23.70
2018-11-25T00:45:50.970Z,21.60
2018-11-25T00:46:50.964Z,24.00
2018-11-25T00:47:51.075Z,21.70
2018-11-25T00:48:50.927Z,24.10
2018-11-25T00:49:50.936Z,20.80
2018-11-25T00:50:50.905Z,20.20
2018-11-25T00:51:50.891Z,19.70
2018-11-25T00:52:50.945Z,21.50
2018-11-25T00:53:50.889Z,18.40
2018-11-25T00:54:50.867Z,20.80
2018-11-25T00:55:50.963Z,20.40
2018-11-25T00:56:50.841Z,17.40
2018-11-25T00:57:50.832Z,20.00
2018-11-25T00:58:50.855Z,23.90
2018-11-25T00:59:50.813Z,17.20
2018-11-25T01:00:50.803Z,23.00
2018-11-25T01:01:50.787Z,20.70
2018-11-25T01:02:50.790Z,24.90
2018-11-25T01:03:50.797Z,18.00
2018-11-25T01:04:50.768Z,23.60
2018-11-25T01:05:50.761Z,23.50
2018-11-25T01:06:50.737Z,17.50
2018-11-25T01:07:50.757Z,20.30
2018-11-25T01:08:50.745Z,18.80
2018-11-25T01:09:50.781Z,22.10
2018-11-25T01:10:50.730Z,20.70
2018-11-25T01:11:50.682Z,23.10
2018-11-25T01:12:50.689Z,20.80
2018-11-25T01:13:50.748Z,21.40
2018-11-25T01:14:50.653Z,21.50
2018-11-25T01:15:50.647Z,22.70
2018-11-25T01:16:50.683Z,25.60
2018-11-25T01:17:50.617Z,24.70
2018-11-25T01:18:50.626Z,28.90
2018-11-25T01:19:50.621Z,24.50
2018-11-25T01:20:50.586Z,28.00
2018-11-25T01:21:50.596Z,29.00
2018-11-25T01:22:50.613Z,24.50
2018-11-25T01:23:50.558Z,27.60
2018-11-25T01:24:50.603Z,29.10
2018-11-25T01:25:50.554Z,28.80
2018-11-25T01:26:50.594Z,24.50
2018-11-25T01:27:50.521Z,27.50
2018-11-25T01:28:50.502Z,29.20
2018-11-25T01:29:50.575Z,31.30
2018-11-25T01:30:50.526Z,29.00
2018-11-25T01:31:50.482Z,28.60
2018-11-25T01:32:50.459Z,29.70
2018-11-25T01:33:50.479Z,24.10
2018-11-25T01:34:50.449Z,28.50
2018-11-25T01:35:50.489Z,23.00
2018-11-25T01:36:50.426Z,25.60
2018-11-25T01:37:50.417Z,24.20
2018-11-25T01:38:50.485Z,29.00
2018-11-25T01:39:50.391Z,21.70
2018-11-25T01:40:50.405Z,22.80
2018-11-25T01:41:50.392Z,24.60
2018-11-25T01:42:50.360Z,25.00
2018-11-25T01:43:50.356Z,24.70
2018-11-25T01:44:50.333Z,22.70
2018-11-25T01:45:50.596Z,21.90
2018-11-25T01:46:50.339Z,22.40
2018-11-25T01:47:50.344Z,20.80
2018-11-25T01:48:50.291Z,20.50
2018-11-25T01:49:50.283Z,20.40
2018-11-25T01:50:50.315Z,20.90
2018-11-25T01:51:50.263Z,18.60
2018-11-25T01:52:50.269Z,22.90
2018-11-25T01:53:50.316Z,21.90
2018-11-25T01:54:50.224Z,23.30
2018-11-25T01:55:50.228Z,22.80
2018-11-25T01:56:50.274Z,20.60
2018-11-25T01:57:50.200Z,22.10
2018-11-25T01:58:50.189Z,20.90
2018-11-25T01:59:50.170Z,24.00
2018-11-25T02:00:50.182Z,20.50
2018-11-25T02:01:50.285Z,18.60
2018-11-25T02:02:50.150Z,18.70
2018-11-25T02:03:50.290Z,23.10
2018-11-25T02:04:50.116Z,22.20
2018-11-25T02:05:50.128Z,21.80
2018-11-25T02:06:50.215Z,19.80
2018-11-25T02:07:50.096Z,22.90
2018-11-25T02:08:50.102Z,27.00
2018-11-25T02:09:50.087Z,21.80
2018-11-25T02:10:50.055Z,25.40
2018-11-25T02:11:50.130Z,25.80
2018-11-25T02:12:50.044Z,19.70
2018-11-25T02:13:50.025Z,17.80
2018-11-25T02:14:50.834Z,19.50
2018-11-25T02:15:50.007Z,20.50
2018-11-25T02:16:50.025Z,31.00
2018-11-25T02:17:50.095Z,19.70
2018-11-25T02:18:49.992Z,19.40
2018-11-25T02:19:49.970Z,22.80
2018-11-25T02:20:49.954Z,19.80
2018-11-25T02:21:49.949Z,19.90
2018-11-25T02:22:49.967Z,18.30
2018-11-25T02:23:49.914Z,20.60
2018-11-25T02:24:49.919Z,18.00
2018-11-25T02:25:49.909Z,24.00
2018-11-25T02:26:49.975Z,17.30
2018-11-25T02:27:49.931Z,23.80
2018-11-25T02:28:49.878Z,18.20
2018-11-25T02:29:49.859Z,18.30
2018-11-25T02:30:49.850Z,21.20
2018-11-25T02:31:49.839Z,17.00
2018-11-25T02:32:49.847Z,17.50
2018-11-25T02:33:49.816Z,23.80
2018-11-25T02:34:49.810Z,20.00
2018-11-25T02:35:49.790Z,17.50
2018-11-25T02:36:49.819Z,19.80
2018-11-25T02:37:50.109Z,20.10
2018-11-25T02:38:49.782Z,17.70
2018-11-25T02:39:49.762Z,17.10
2018-11-25T02:40:49.744Z,17.40
2018-11-25T02:41:49.881Z,17.70
2018-11-25T02:42:49.782Z,18.60
2018-11-25T02:43:49.709Z,17.00
2018-11-25T02:44:49.696Z,18.00
2018-11-25T02:45:49.727Z,20.70
2018-11-25T02:46:49.683Z,16.30
2018-11-25T02:47:49.682Z,19.40
2018-11-25T02:48:49.679Z,16.60
2018-11-25T02:49:49.650Z,18.80
2018-11-25T02:50:49.705Z,22.80
2018-11-25T02:51:49.621Z,19.60
2018-11-25T02:52:49.645Z,22.90
2018-11-25T02:53:49.642Z,17.90
2018-11-25T02:54:49.590Z,22.30
2018-11-25T02:55:49.580Z,21.00
2018-11-25T02:56:49.566Z,26.10
2018-11-25T02:57:49.561Z,18.90
2018-11-25T02:58:49.616Z,23.00
2018-11-25T02:59:49.535Z,19.50
2018-11-25T03:00:49.526Z,22.30
2018-11-25T03:01:49.526Z,17.90
2018-11-25T03:02:49.504Z,19.90
2018-11-25T03:03:49.537Z,19.20
2018-11-25T03:04:49.485Z,19.80
2018-11-25T03:05:49.555Z,18.40
2018-11-25T03:06:49.484Z,20.30
2018-11-25T03:07:49.475Z,21.10
2018-11-25T03:08:49.561Z,19.70
2018-11-25T03:09:49.442Z,23.80
2018-11-25T03:10:49.430Z,20.70
2018-11-25T03:11:49.455Z,19.70
2018-11-25T03:12:49.412Z,22.20
2018-11-25T03:13:49.431Z,24.30
2018-11-25T03:14:50.443Z,21.50
2018-11-25T03:15:49.419Z,25.60
2018-11-25T03:16:49.369Z,20.70
2018-11-25T03:17:49.354Z,19.30
2018-11-25T03:18:49.364Z,22.10
2018-11-25T03:19:49.342Z,19.50
2018-11-25T03:20:49.377Z,26.20
2018-11-25T03:21:49.376Z,22.50
2018-11-25T03:22:49.295Z,17.60
2018-11-25T03:23:49.297Z,20.00
2018-11-25T03:24:49.300Z,25.10
2018-11-25T03:25:49.267Z,21.90
2018-11-25T03:26:49.250Z,24.50
2018-11-25T03:27:49.246Z,21.00
2018-11-25T03:28:49.236Z,20.20
2018-11-25T03:29:49.252Z,21.50
2018-11-25T03:30:49.222Z,21.70
2018-11-25T03:31:49.266Z,18.20
2018-11-25T03:32:49.190Z,19.90
2018-11-25T03:33:49.198Z,19.20
2018-11-25T03:34:49.199Z,25.40
2018-11-25T03:35:49.158Z,22.90
2018-11-25T03:36:49.152Z,19.50
2018-11-25T03:37:49.198Z,21.40
2018-11-25T03:38:49.136Z,22.90
2018-11-25T03:39:49.158Z,19.80
2018-11-25T03:40:49.105Z,26.10
2018-11-25T03:41:49.117Z,26.20
2018-11-25T03:42:49.194Z,22.60
2018-11-25T03:43:49.076Z,19.00
2018-11-25T03:44:49.068Z,19.50
2018-11-25T03:45:49.371Z,21.40
2018-11-25T03:46:49.047Z,24.60
2018-11-25T03:47:49.038Z,21.80
2018-11-25T03:48:49.105Z,20.50
2018-11-25T03:49:49.028Z,19.70
2018-11-25T03:50:49.041Z,24.10
2018-11-25T03:51:48.997Z,20.80
2018-11-25T03:52:49.004Z,20.50
2018-11-25T03:53:48.969Z,21.70
2018-11-25T03:54:48.966Z,24.60
2018-11-25T03:55:48.980Z,19.00
2018-11-25T03:56:49.012Z,20.80
2018-11-25T03:57:48.951Z,22.30
2018-11-25T03:58:48.918Z,21.00
2018-11-25T03:59:48.995Z,25.10
2018-11-25T04:00:48.898Z,21.90
2018-11-25T04:01:48.924Z,21.50
2018-11-25T04:02:48.876Z,23.80
2018-11-25T04:03:48.872Z,20.80
2018-11-25T04:04:48.855Z,20.20
2018-11-25T04:05:48.845Z,20.80
2018-11-25T04:06:48.953Z,23.00
2018-11-25T04:07:48.835Z,21.10
2018-11-25T04:08:48.828Z,25.10
2018-11-25T04:09:48.826Z,27.10
2018-11-25T04:10:48.794Z,25.10
2018-11-25T04:11:48.817Z,31.30
2018-11-25T04:12:48.810Z,25.60
2018-11-25T04:13:48.776Z,27.80
2018-11-25T04:14:49.311Z,28.60
2018-11-25T04:15:48.741Z,27.80
2018-11-25T04:16:48.832Z,25.30
2018-11-25T04:17:48.761Z,29.60
2018-11-25T04:18:48.703Z,26.50
2018-11-25T04:19:48.724Z,30.90
2018-11-25T04:20:48.685Z,23.30
2018-11-25T04:21:48.673Z,28.70
2018-11-25T04:22:48.728Z,25.60
2018-11-25T04:23:48.653Z,32.90
2018-11-25T04:24:48.641Z,25.60
2018-11-25T04:25:48.640Z,27.50
2018-11-25T04:26:48.629Z,26.10
2018-11-25T04:27:48.652Z,27.60
2018-11-25T04:28:48.676Z,26.80
2018-11-25T04:29:48.595Z,28.50
2018-11-25T04:30:48.581Z,28.60
2018-11-25T04:31:48.579Z,26.10
2018-11-25T04:32:48.591Z,24.30
2018-11-25T04:33:48.554Z,26.10
2018-11-25T04:34:48.550Z,29.20
2018-11-25T04:35:48.537Z,23.70
2018-11-25T04:36:48.525Z,27.30
2018-11-25T04:37:48.644Z,30.90
2018-11-25T04:38:48.500Z,29.60
2018-11-25T04:39:48.491Z,24.40
2018-11-25T04:40:48.494Z,25.70
2018-11-25T04:41:48.474Z,23.90
2018-11-25T04:42:48.476Z,31.30
2018-11-25T04:43:48.501Z,21.90
2018-11-25T04:44:48.427Z,21.90
2018-11-25T04:45:48.453Z,24.80
2018-11-25T04:46:48.406Z,22.20
2018-11-25T04:47:48.410Z,25.00
2018-11-25T04:48:48.392Z,21.70
2018-11-25T04:49:48.445Z,22.40
2018-11-25T04:50:48.367Z,18.70
2018-11-25T04:51:48.357Z,22.40
2018-11-25T04:52:48.373Z,18.50
2018-11-25T04:53:48.342Z,19.60
2018-11-25T04:54:48.357Z,20.50
2018-11-25T04:55:48.310Z,20.90
2018-11-25T04:56:48.305Z,19.00
2018-11-25T04:57:48.342Z,20.10
2018-11-25T04:58:48.306Z,20.60
2018-11-25T04:59:48.294Z,20.50
2018-11-25T05:00:48.278Z,16.00
2018-11-25T05:01:48.253Z,19.70
2018-11-25T05:02:48.258Z,20.90
2018-11-25T05:03:48.252Z,20.70
2018-11-25T05:04:48.245Z,21.40
2018-11-25T05:05:48.205Z,19.40
2018-11-25T05:06:48.195Z,20.20
2018-11-25T05:07:48.596Z,18.90
2018-11-25T05:08:48.223Z,18.60
2018-11-25T05:09:48.172Z,17.60
2018-11-25T05:10:48.171Z,22.50
2018-11-25T05:11:48.344Z,22.70
2018-11-25T05:12:48.142Z,21.20
2018-11-25T05:13:48.124Z,17.20
2018-11-25T05:14:48.115Z,18.00
2018-11-25T05:15:48.280Z,18.60
2018-11-25T05:16:48.099Z,19.10
2018-11-25T05:17:48.194Z,20.70
2018-11-25T05:18:48.066Z,21.00
2018-11-25T05:19:48.067Z,20.70
2018-11-25T05:20:48.077Z,20.00
2018-11-25T05:21:48.033Z,18.90
2018-11-25T05:22:48.024Z,20.60
2018-11-25T05:23:48.051Z,19.30
2018-11-25T05:24:48.006Z,19.50
2018-11-25T05:25:47.992Z,21.10
2018-11-25T05:26:48.005Z,18.90
2018-11-25T05:27:48.043Z,23.60
2018-11-25T05:28:47.964Z,19.20
2018-11-25T05:29:47.968Z,19.60
2018-11-25T05:30:47.982Z,21.00
2018-11-25T05:31:48.117Z,19.80
2018-11-25T05:32:47.928Z,20.20
2018-11-25T05:33:47.920Z,16.40
2018-11-25T05:34:47.903Z,17.30
2018-11-25T05:35:47.943Z,17.10
2018-11-25T05:36:47.945Z,16.60
2018-11-25T05:37:47.860Z,16.10
2018-11-25T05:38:47.849Z,17.50
2018-11-25T05:39:47.928Z,22.70
2018-11-25T05:40:47.850Z,29.80
2018-11-25T05:41:47.814Z,15.20
2018-11-25T05:42:47.841Z,17.40
2018-11-25T05:43:47.798Z,21.80
2018-11-25T05:44:47.784Z,20.60
2018-11-25T05:45:47.800Z,16.20
2018-11-25T05:46:47.762Z,18.50
2018-11-25T05:47:47.781Z,23.30
2018-11-25T05:48:47.740Z,18.70
2018-11-25T05:49:47.751Z,21.60
2018-11-25T05:50:47.727Z,20.60
2018-11-25T05:51:47.715Z,22.30
2018-11-25T05:52:47.724Z,21.30
2018-11-25T05:53:47.711Z,32.00
2018-11-25T05:54:47.695Z,28.80
2018-11-25T05:55:47.674Z,25.10
2018-11-25T05:56:47.659Z,26.40
2018-11-25T05:57:47.677Z,30.30
2018-11-25T05:58:47.661Z,27.60
2018-11-25T05:59:47.624Z,23.90
2018-11-25T06:00:47.627Z,25.20
2018-11-25T06:01:47.649Z,29.40
2018-11-25T06:02:47.628Z,26.00
2018-11-25T06:03:47.585Z,25.30
2018-11-25T06:04:47.565Z,25.20
2018-11-25T06:05:47.561Z,24.60
2018-11-25T06:06:47.593Z,30.80
2018-11-25T06:07:47.536Z,23.90
2018-11-25T06:08:47.585Z,26.20
2018-11-25T06:09:47.520Z,24.90
2018-11-25T06:10:47.515Z,25.50
2018-11-25T06:11:47.580Z,28.60
2018-11-25T06:12:47.517Z,25.80
2018-11-25T06:13:47.514Z,24.60
2018-11-25T06:14:47.467Z,26.70
2018-11-25T06:15:47.525Z,27.00
2018-11-25T06:16:47.454Z,27.50
2018-11-25T06:17:47.451Z,25.40
2018-11-25T06:18:47.450Z,26.70
2018-11-25T06:19:47.408Z,25.80
2018-11-25T06:20:47.433Z,28.20
2018-11-25T06:21:47.391Z,29.50
2018-11-25T06:22:47.386Z,22.80
2018-11-25T06:23:47.506Z,29.50
2018-11-25T06:24:47.357Z,31.30
2018-11-25T06:25:47.389Z,35.10
2018-11-25T06:26:47.353Z,36.40
2018-11-25T06:27:47.328Z,35.30
2018-11-25T06:28:47.351Z,35.50
2018-11-25T06:29:47.309Z,33.00
2018-11-25T06:30:47.422Z,36.50
2018-11-25T06:31:47.311Z,32.30
2018-11-25T06:32:47.301Z,39.40
2018-11-25T06:33:47.299Z,36.90
2018-11-25T06:34:47.270Z,39.70
2018-11-25T06:35:47.357Z,39.40
2018-11-25T06:36:47.242Z,37.40
2018-11-25T06:37:47.299Z,43.90
2018-11-25T06:38:47.216Z,43.60
2018-11-25T06:39:47.295Z,37.20
2018-11-25T06:40:47.191Z,34.20
2018-11-25T06:41:47.204Z,43.40
2018-11-25T06:42:47.166Z,42.80
2018-11-25T06:43:47.186Z,40.80
2018-11-25T06:44:47.174Z,32.60
2018-11-25T06:45:47.154Z,37.00
2018-11-25T06:46:47.134Z,39.70
2018-11-25T06:47:47.127Z,31.60
2018-11-25T06:48:54.550Z,35.10
2018-11-25T06:49:48.115Z,34.60
2018-11-25T06:50:47.077Z,31.90
2018-11-25T06:51:47.069Z,29.40
2018-11-25T06:52:47.060Z,31.50
2018-11-25T06:53:47.103Z,20.70
2018-11-25T06:54:47.080Z,26.90
2018-11-25T06:55:47.435Z,27.10
2018-11-25T06:56:47.018Z,34.60
2018-11-25T06:57:47.069Z,23.60
2018-11-25T06:58:47.023Z,27.60
2018-11-25T06:59:47.122Z,25.60
2018-11-25T07:00:47.057Z,23.30
2018-11-25T07:01:47.008Z,21.70
2018-11-25T07:02:46.955Z,19.90
2018-11-25T07:03:46.955Z,22.30
2018-11-25T07:04:46.938Z,22.20
2018-11-25T07:05:46.970Z,19.30
2018-11-25T07:06:46.926Z,20.30
2018-11-25T07:07:46.936Z,19.80
2018-11-25T07:08:46.889Z,25.60
2018-11-25T07:09:46.905Z,25.30
2018-11-25T07:10:46.979Z,28.30
2018-11-25T07:11:46.895Z,25.40
2018-11-25T07:12:46.871Z,21.30
2018-11-25T07:13:46.843Z,23.40
2018-11-25T07:14:46.843Z,22.20
2018-11-25T07:15:46.831Z,25.40
2018-11-25T07:16:47.042Z,19.80
2018-11-25T07:17:46.860Z,20.60
2018-11-25T07:18:46.786Z,18.40
2018-11-25T07:19:46.785Z,20.50
2018-11-25T07:20:46.794Z,22.50
2018-11-25T07:21:46.808Z,22.80
2018-11-25T07:22:46.771Z,21.30
2018-11-25T07:23:46.785Z,19.90
2018-11-25T07:24:46.811Z,24.00
2018-11-25T07:25:46.720Z,22.40
2018-11-25T07:26:46.732Z,19.70
2018-11-25T07:27:46.702Z,22.40
2018-11-25T07:28:46.763Z,20.60
2018-11-25T07:29:46.691Z,17.70
2018-11-25T07:30:46.661Z,18.90
2018-11-25T07:31:46.656Z,19.30
2018-11-25T07:32:46.759Z,20.60
2018-11-25T07:33:46.642Z,19.50
2018-11-25T07:34:46.633Z,22.20
2018-11-25T07:35:46.630Z,15.70
2018-11-25T07:36:46.610Z,25.50
2018-11-25T07:37:46.627Z,21.10
2018-11-25T07:38:46.572Z,19.10
2018-11-25T07:39:46.579Z,20.70
2018-11-25T07:40:46.645Z,18.50
2018-11-25T07:41:46.683Z,21.60
2018-11-25T07:42:51.532Z,21.00
2018-11-25T07:43:46.538Z,14.60
2018-11-25T07:44:46.513Z,16.80
2018-11-25T07:45:46.531Z,19.10
2018-11-25T07:46:46.490Z,18.60
2018-11-25T07:47:46.480Z,19.10
2018-11-25T07:48:46.546Z,17.30
2018-11-25T07:49:46.458Z,18.70
2018-11-25T07:50:46.479Z,21.40
2018-11-25T07:51:46.433Z,20.80
2018-11-25T07:52:46.443Z,18.70
2018-11-25T07:53:46.468Z,18.60
2018-11-25T07:54:46.402Z,22.40
2018-11-25T07:55:46.397Z,23.00
2018-11-25T07:56:46.867Z,17.50
2018-11-25T07:57:46.384Z,18.90
2018-11-25T07:58:46.390Z,19.20
2018-11-25T07:59:46.457Z,17.60
2018-11-25T08:00:46.351Z,18.10
2018-11-25T08:01:46.360Z,21.80
2018-11-25T08:02:46.323Z,21.60
2018-11-25T08:03:46.392Z,27.20
2018-11-25T08:04:46.299Z,28.90
2018-11-25T08:05:46.299Z,23.10
2018-11-25T08:06:46.284Z,22.90
2018-11-25T08:07:46.270Z,25.40
2018-11-25T08:08:46.327Z,26.90
2018-11-25T08:09:46.270Z,27.90
2018-11-25T08:10:46.240Z,23.00
2018-11-25T08:11:46.229Z,25.90
2018-11-25T08:12:46.287Z,31.60
2018-11-25T08:13:46.207Z,31.10
2018-11-25T08:14:46.275Z,27.10
2018-11-25T08:15:46.229Z,32.00
2018-11-25T08:16:46.178Z,25.60
2018-11-25T08:17:46.169Z,29.90
2018-11-25T08:18:46.175Z,29.60
2018-11-25T08:19:46.176Z,33.00
2018-11-25T08:20:46.169Z,37.30
2018-11-25T08:21:46.121Z,36.10
2018-11-25T08:22:46.167Z,38.40
2018-11-25T08:23:46.112Z,35.60
2018-11-25T08:24:46.095Z,41.60
2018-11-25T08:25:46.135Z,47.60
2018-11-25T08:26:46.093Z,50.10
2018-11-25T08:27:46.052Z,59.50
2018-11-25T08:28:46.052Z,58.90
2018-11-25T08:29:46.110Z,57.10
2018-11-25T08:30:46.058Z,51.50
2018-11-25T08:31:46.012Z,58.70
2018-11-25T08:32:46.055Z,69.70
2018-11-25T08:33:45.995Z,60.50
2018-11-25T08:34:45.998Z,62.80
2018-11-25T08:35:45.998Z,69.90
2018-11-25T08:36:45.985Z,63.30
2018-11-25T08:37:45.962Z,65.30
2018-11-25T08:38:45.934Z,51.50
2018-11-25T08:39:45.934Z,54.90
2018-11-25T08:40:46.071Z,49.50
2018-11-25T08:41:45.948Z,51.60
2018-11-25T08:42:45.909Z,50.20
2018-11-25T08:43:45.889Z,48.80
2018-11-25T08:44:45.873Z,51.60
2018-11-25T08:45:45.930Z,50.00
2018-11-25T08:46:45.893Z,47.30
2018-11-25T08:47:45.840Z,55.90
2018-11-25T08:48:45.829Z,49.90
2018-11-25T08:49:45.816Z,48.40
2018-11-25T08:50:45.808Z,48.60
2018-11-25T08:51:45.887Z,45.50
2018-11-25T08:52:45.785Z,48.10
2018-11-25T08:53:45.782Z,44.90
2018-11-25T08:54:45.761Z,39.30
2018-11-25T08:55:45.756Z,42.00
2018-11-25T08:56:45.914Z,39.80
2018-11-25T08:57:45.734Z,39.90
2018-11-25T08:58:45.866Z,36.80
2018-11-25T08:59:45.725Z,36.70
2018-11-25T09:00:45.765Z,42.10
2018-11-25T09:01:45.684Z,41.50
2018-11-25T09:02:45.734Z,38.80
2018-11-25T09:03:45.691Z,42.10
2018-11-25T09:04:45.673Z,42.30
2018-11-25T09:05:45.640Z,42.70
2018-11-25T09:06:45.633Z,37.40
2018-11-25T09:07:45.802Z,41.40
2018-11-25T09:08:45.610Z,38.10
2018-11-25T09:09:45.632Z,35.60
2018-11-25T09:10:45.687Z,34.60
2018-11-25T09:11:45.585Z,32.10
2018-11-25T09:12:45.602Z,28.10
2018-11-25T09:13:45.554Z,25.00
2018-11-25T09:14:45.614Z,28.50
2018-11-25T09:15:45.616Z,39.30
2018-11-25T09:16:45.524Z,36.20
2018-11-25T09:17:45.512Z,33.00
2018-11-25T09:18:45.632Z,25.30
2018-11-25T09:19:45.502Z,26.40
2018-11-25T09:20:45.478Z,27.00
2018-11-25T09:21:45.526Z,24.10
2018-11-25T09:22:45.461Z,25.10
2018-11-25T09:23:45.471Z,26.70
2018-11-25T09:24:45.443Z,27.30
2018-11-25T09:25:45.431Z,29.20
2018-11-25T09:26:45.420Z,27.10
2018-11-25T09:27:45.414Z,28.80
2018-11-25T09:28:45.436Z,29.50
2018-11-25T09:29:45.387Z,28.50
2018-11-25T09:30:45.422Z,30.30
2018-11-25T09:31:45.362Z,31.00
2018-11-25T09:32:45.355Z,30.70
2018-11-25T09:33:45.341Z,30.40
2018-11-25T09:34:45.365Z,28.40
2018-11-25T09:35:45.332Z,32.80
2018-11-25T09:36:45.378Z,27.20
2018-11-25T09:37:45.303Z,28.50
2018-11-25T09:38:45.457Z,28.30
2018-11-25T09:39:45.307Z,29.30
2018-11-25T09:40:45.262Z,27.50
2018-11-25T09:41:45.263Z,28.80
2018-11-25T09:42:45.261Z,30.00
2018-11-25T09:43:45.233Z,30.80
2018-11-25T09:44:45.251Z,28.10
2018-11-25T09:45:45.216Z,28.10
2018-11-25T09:46:45.304Z,30.20
2018-11-25T09:47:45.192Z,30.10
2018-11-25T09:48:45.183Z,26.20
2018-11-25T09:49:45.293Z,28.70
2018-11-25T09:50:45.165Z,29.50
2018-11-25T09:51:45.158Z,29.70
2018-11-25T09:52:45.140Z,27.30
2018-11-25T09:53:45.200Z,28.00
2018-11-25T09:54:45.118Z,27.80
2018-11-25T09:55:45.138Z,25.50
2018-11-25T09:56:45.104Z,29.70
2018-11-25T09:57:45.091Z,32.70
2018-11-25T09:58:45.072Z,26.80
2018-11-25T09:59:45.117Z,31.30
2018-11-25T10:00:45.074Z,27.90
2018-11-25T10:01:45.041Z,25.50
2018-11-25T10:02:45.077Z,27.50
2018-11-25T10:03:45.041Z,27.10
2018-11-25T10:04:45.005Z,28.80
2018-11-25T10:05:45.055Z,27.40
2018-11-25T10:06:44.988Z,28.30
2018-11-25T10:07:44.971Z,30.10
2018-11-25T10:08:44.982Z,26.10
2018-11-25T10:09:44.965Z,24.10
2018-11-25T10:10:45.011Z,30.00
2018-11-25T10:11:44.984Z,28.60
2018-11-25T10:12:44.957Z,28.40
2018-11-25T10:13:44.911Z,26.10
2018-11-25T10:14:44.904Z,28.70
2018-11-25T10:15:44.933Z,29.90
2018-11-25T10:16:44.903Z,29.40
2018-11-25T10:17:44.883Z,25.50
2018-11-25T10:18:44.869Z,26.20
2018-11-25T10:19:44.884Z,29.70
2018-11-25T10:20:44.846Z,26.50
2018-11-25T10:21:44.857Z,28.70
2018-11-25T10:22:44.828Z,29.00
2018-11-25T10:23:44.813Z,28.50
2018-11-25T10:24:44.791Z,24.30
2018-11-25T10:25:44.792Z,26.10
2018-11-25T10:26:44.770Z,24.70
2018-11-25T10:27:44.782Z,24.40
2018-11-25T10:28:44.803Z,26.80
2018-11-25T10:29:44.735Z,29.30
2018-11-25T10:30:44.801Z,27.60
2018-11-25T10:31:44.724Z,29.60
2018-11-25T10:32:44.820Z,26.30
2018-11-25T10:33:44.692Z,25.10
2018-11-25T10:34:44.681Z,25.10
2018-11-25T10:35:44.676Z,24.90
2018-11-25T10:36:44.719Z,25.80
2018-11-25T10:37:44.691Z,26.70
2018-11-25T10:38:44.648Z,26.20
2018-11-25T10:39:44.627Z,26.60
2018-11-25T10:40:44.616Z,23.90
2018-11-25T10:41:44.608Z,25.80
2018-11-25T10:42:44.677Z,23.40
2018-11-25T10:43:44.659Z,23.30
2018-11-25T10:44:44.571Z,25.00
2018-11-25T10:45:44.562Z,24.80
2018-11-25T10:46:44.571Z,25.10
2018-11-25T10:47:44.548Z,24.00
2018-11-25T10:48:44.591Z,24.30
2018-11-25T10:49:44.528Z,24.00
2018-11-25T10:50:50.963Z,23.60
2018-11-25T10:51:45.530Z,22.70
2018-11-25T10:52:44.488Z,22.70
2018-11-25T10:53:44.500Z,26.50
2018-11-25T10:54:44.479Z,22.70
2018-11-25T10:55:44.454Z,22.60
2018-11-25T10:56:44.440Z,22.60
2018-11-25T10:57:44.482Z,20.00
2018-11-25T10:58:44.453Z,20.80
2018-11-25T10:59:44.407Z,20.80
2018-11-25T11:00:44.409Z,22.40
2018-11-25T11:01:44.389Z,18.80
2018-11-25T11:02:44.376Z,18.70
2018-11-25T11:03:44.369Z,21.80
2018-11-25T11:04:44.444Z,21.70
2018-11-25T11:05:44.344Z,20.40
2018-11-25T11:06:44.334Z,20.80
2018-11-25T11:07:44.329Z,20.00
2018-11-25T11:08:44.320Z,20.80
2018-11-25T11:09:44.322Z,19.10
2018-11-25T11:10:44.304Z,20.20
2018-11-25T11:11:44.280Z,21.10
2018-11-25T11:12:44.273Z,21.70
2018-11-25T11:13:44.261Z,20.20
2018-11-25T11:14:44.269Z,19.90
2018-11-25T11:15:44.238Z,20.20
2018-11-25T11:16:44.250Z,20.60
2018-11-25T11:17:44.211Z,19.20
2018-11-25T11:18:44.201Z,18.30
2018-11-25T11:19:44.220Z,19.90
2018-11-25T11:20:44.181Z,21.30
2018-11-25T11:21:44.168Z,19.20
2018-11-25T11:22:44.188Z,20.20
2018-11-25T11:23:44.149Z,21.70
2018-11-25T11:24:44.160Z,20.30
2018-11-25T11:25:44.139Z,20.90
2018-11-25T11:26:44.116Z,21.00
2018-11-25T11:27:44.104Z,20.30
2018-11-25T11:28:44.121Z,19.30
2018-11-25T11:29:44.109Z,19.40
2018-11-25T11:30:44.070Z,18.80
2018-11-25T11:31:44.061Z,21.90
2018-11-25T11:32:44.066Z,16.70
2018-11-25T11:33:44.043Z,20.50
2018-11-25T11:34:44.064Z,17.80
2018-11-25T11:35:44.071Z,18.60
2018-11-25T11:36:44.007Z,21.10
2018-11-25T11:37:43.997Z,21.70
2018-11-25T11:38:44.014Z,23.60
2018-11-25T11:39:43.974Z,21.50
2018-11-25T11:40:43.987Z,20.30
2018-11-25T11:41:43.953Z,22.80
2018-11-25T11:42:43.955Z,23.30
2018-11-25T11:43:43.990Z,21.10
2018-11-25T11:44:43.925Z,23.00
2018-11-25T11:45:43.935Z,26.40
2018-11-25T11:46:43.915Z,22.60
2018-11-25T11:47:43.998Z,22.50
2018-11-25T11:48:43.903Z,22.50
2018-11-25T11:49:43.865Z,22.50
2018-11-25T11:50:43.862Z,22.10
2018-11-25T11:51:43.872Z,22.60
2018-11-25T11:52:43.830Z,21.20
2018-11-25T11:53:43.820Z,22.10
2018-11-25T11:54:43.838Z,21.50
2018-11-25T11:55:43.800Z,22.00
2018-11-25T11:56:43.813Z,20.00
2018-11-25T11:57:43.776Z,19.50
2018-11-25T11:58:43.765Z,20.40
2018-11-25T11:59:43.774Z,18.50
2018-11-25T12:00:43.744Z,21.10
2018-11-25T12:01:43.759Z,21.70
2018-11-25T12:02:43.727Z,20.40
2018-11-25T12:03:43.715Z,21.00
2018-11-25T12:04:43.699Z,18.80
2018-11-25T12:05:43.751Z,20.30
2018-11-25T12:06:43.721Z,21.50
2018-11-25T12:07:43.668Z,19.80
2018-11-25T12:08:43.657Z,19.50
2018-11-25T12:09:43.646Z,21.50
2018-11-25T12:10:43.637Z,19.00
2018-11-25T12:11:43.649Z,16.80
2018-11-25T12:12:43.638Z,17.40
2018-11-25T12:13:43.623Z,17.70
2018-11-25T12:14:43.772Z,19.00
2018-11-25T12:15:43.584Z,19.80
2018-11-25T12:16:43.646Z,18.70
2018-11-25T12:17:43.585Z,18.30
2018-11-25T12:18:43.590Z,18.20
2018-11-25T12:19:43.662Z,18.90
2018-11-25T12:20:43.528Z,18.00
2018-11-25T12:21:43.532Z,18.40
2018-11-25T12:22:43.539Z,17.30
2018-11-25T12:23:43.593Z,18.90
2018-11-25T12:24:43.520Z,17.80
2018-11-25T12:25:43.472Z,19.70
2018-11-25T12:26:43.463Z,19.40
2018-11-25T12:27:43.530Z,16.50
2018-11-25T12:28:43.463Z,17.70
2018-11-25T12:29:43.444Z,16.60
2018-11-25T12:30:43.418Z,17.20
2018-11-25T12:31:43.414Z,15.70
2018-11-25T12:32:43.456Z,15.10
2018-11-25T12:33:43.432Z,15.90
2018-11-25T12:34:43.390Z,17.20
2018-11-25T12:35:43.363Z,15.20
2018-11-25T12:36:43.363Z,16.70
2018-11-25T12:37:43.377Z,16.70
2018-11-25T12:38:43.380Z,16.80
2018-11-25T12:39:43.320Z,16.90
2018-11-25T12:40:43.332Z,17.20
2018-11-25T12:41:43.298Z,15.80
2018-11-25T12:42:43.287Z,16.60
2018-11-25T12:43:43.282Z,18.40
2018-11-25T12:44:43.288Z,18.50
2018-11-25T12:45:43.258Z,16.10
2018-11-25T12:46:43.268Z,18.00
2018-11-25T12:47:43.234Z,19.30
2018-11-25T12:48:43.246Z,19.30
2018-11-25T12:49:43.333Z,17.60
2018-11-25T12:50:43.204Z,17.20
2018-11-25T12:51:43.193Z,18.90
2018-11-25T12:52:43.324Z,16.50